createdAt,value
2017-10-25T00:00:15.521Z,1009.2
2017-10-25T00:01:17.950Z,1009.2
2017-10-25T00:02:20.378Z,1009.2
2017-10-25T00:03:22.839Z,1009.2
2017-10-25T00:04:25.246Z,1009.1
2017-10-25T00:05:27.687Z,1009.2
2017-10-25T00:06:30.117Z,1009.1
2017-10-25T00:07:33.266Z,1009.1
2017-10-25T00:08:35.695Z,1009.1
2017-10-25T00:09:38.127Z,1009.1
2017-10-25T00:10:40.929Z,1009.1
2017-10-25T00:11:43.343Z,1009.1
2017-10-25T00:12:45.765Z,1009.1
2017-10-25T00:13:48.214Z,1009.1
2017-10-25T00:14:50.644Z,1009.1
2017-10-25T00:15:53.077Z,1009.1
2017-10-25T00:16:55.507Z,1009.1
2017-10-25T00:17:57.939Z,1009.1
2017-10-25T00:19:00.372Z,1009.1
2017-10-25T00:20:02.808Z,1009.1
2017-10-25T00:21:05.233Z,1009.1
2017-10-25T00:22:07.668Z,1009.1
2017-10-25T00:23:10.095Z,1009
2017-10-25T00:24:12.538Z,1009
2017-10-25T00:25:14.968Z,1009
2017-10-25T00:26:17.394Z,1009
2017-10-25T00:27:19.827Z,1009
2017-10-25T00:28:22.267Z,1009
2017-10-25T00:29:24.695Z,1009
2017-10-25T00:30:27.476Z,1009
2017-10-25T00:31:29.912Z,1009
2017-10-25T00:32:32.693Z,1008.9
2017-10-25T00:33:35.481Z,1008.9
2017-10-25T00:34:37.916Z,1009
2017-10-25T00:35:40.348Z,1008.9
2017-10-25T00:36:42.786Z,1009
2017-10-25T00:37:45.227Z,1008.9
2017-10-25T00:38:47.647Z,1009
2017-10-25T00:39:50.087Z,1009
2017-10-25T00:40:52.519Z,1009
2017-10-25T00:41:54.952Z,1009.1
2017-10-25T00:42:57.393Z,1009.1
2017-10-25T00:43:59.817Z,1009.1
2017-10-25T00:45:02.614Z,1009.1
2017-10-25T00:46:05.407Z,1009.1
2017-10-25T00:47:08.208Z,1009.1
2017-10-25T00:48:10.636Z,1009.1
2017-10-25T00:49:13.070Z,1009.1
2017-10-25T00:50:15.503Z,1009
2017-10-25T00:51:18.295Z,1009
2017-10-25T00:52:20.730Z,1009
2017-10-25T00:53:23.159Z,1009
2017-10-25T00:54:25.980Z,1009
2017-10-25T00:55:28.408Z,1009
2017-10-25T00:56:30.847Z,1009
2017-10-25T00:57:33.285Z,1009
2017-10-25T00:58:35.711Z,1009
2017-10-25T00:59:38.151Z,1009
2017-10-25T01:00:40.579Z,1008.9
2017-10-25T01:01:43.028Z,1009
2017-10-25T01:02:45.466Z,1009
2017-10-25T01:03:47.883Z,1009
2017-10-25T01:04:50.324Z,1009
2017-10-25T01:05:52.750Z,1009
2017-10-25T01:06:55.185Z,1009
2017-10-25T01:07:57.616Z,1009
2017-10-25T01:09:00.044Z,1009
2017-10-25T01:10:02.868Z,1009.1
2017-10-25T01:11:05.315Z,1009.1
2017-10-25T01:12:07.746Z,1009
2017-10-25T01:13:10.557Z,1009
2017-10-25T01:14:12.986Z,1009
2017-10-25T01:15:15.413Z,1009
2017-10-25T01:16:17.858Z,1009
2017-10-25T01:17:20.306Z,1009
2017-10-25T01:18:23.074Z,1009.1
2017-10-25T01:19:25.514Z,1009.1
2017-10-25T01:20:27.948Z,1009
2017-10-25T01:21:30.379Z,1009
2017-10-25T01:22:32.801Z,1009
2017-10-25T01:23:35.230Z,1009
2017-10-25T01:24:37.657Z,1009
2017-10-25T01:25:40.105Z,1009
2017-10-25T01:26:42.538Z,1009
2017-10-25T01:27:44.964Z,1009
2017-10-25T01:28:47.405Z,1009
2017-10-25T01:29:49.844Z,1009
2017-10-25T01:30:52.280Z,1009
2017-10-25T01:31:54.718Z,1009
2017-10-25T01:32:57.145Z,1009
2017-10-25T01:33:59.577Z,1009
2017-10-25T01:35:02.000Z,1009
2017-10-25T01:36:04.428Z,1008.9
2017-10-25T01:37:06.881Z,1008.9
2017-10-25T01:38:09.303Z,1009
2017-10-25T01:39:11.739Z,1008.9
2017-10-25T01:40:14.173Z,1008.9
2017-10-25T01:41:16.609Z,1008.8
2017-10-25T01:42:19.050Z,1008.7
2017-10-25T01:43:21.485Z,1008.8
2017-10-25T01:44:23.904Z,1008.8
2017-10-25T01:45:26.340Z,1008.8
2017-10-25T01:46:28.775Z,1008.8
2017-10-25T01:47:31.210Z,1008.8
2017-10-25T01:48:33.648Z,1008.8
2017-10-25T01:49:36.070Z,1008.8
2017-10-25T01:50:38.508Z,1008.8
2017-10-25T01:51:41.306Z,1008.8
2017-10-25T01:52:43.728Z,1008.8
2017-10-25T01:53:46.533Z,1008.8
2017-10-25T01:54:48.972Z,1008.8
2017-10-25T01:55:51.401Z,1008.8
2017-10-25T01:56:53.842Z,1008.8
2017-10-25T01:57:56.285Z,1008.8
2017-10-25T01:58:58.696Z,1008.8
2017-10-25T02:00:01.134Z,1008.8
2017-10-25T02:01:03.929Z,1008.8
2017-10-25T02:02:06.368Z,1008.7
2017-10-25T02:03:08.796Z,1008.8
2017-10-25T02:04:11.235Z,1008.7
2017-10-25T02:05:13.662Z,1008.8
2017-10-25T02:06:16.094Z,1008.8
2017-10-25T02:07:18.525Z,1008.8
2017-10-25T02:08:20.963Z,1008.8
2017-10-25T02:09:23.748Z,1008.8
2017-10-25T02:10:26.188Z,1008.8
2017-10-25T02:11:28.614Z,1008.9
2017-10-25T02:12:31.409Z,1008.9
2017-10-25T02:13:33.848Z,1008.8
2017-10-25T02:14:36.276Z,1008.8
2017-10-25T02:15:38.719Z,1008.9
2017-10-25T02:16:41.146Z,1008.9
2017-10-25T02:17:43.572Z,1008.8
2017-10-25T02:18:46.004Z,1008.8
2017-10-25T02:19:48.460Z,1008.8
2017-10-25T02:20:50.864Z,1008.8
2017-10-25T02:21:53.292Z,1008.8
2017-10-25T02:22:55.729Z,1008.8
2017-10-25T02:23:58.165Z,1008.8
2017-10-25T02:25:00.611Z,1008.8
2017-10-25T02:26:03.397Z,1008.8
2017-10-25T02:27:05.832Z,1008.7
2017-10-25T02:28:08.267Z,1008.7
2017-10-25T02:29:10.694Z,1008.7
2017-10-25T02:30:13.131Z,1008.7
2017-10-25T02:31:15.578Z,1008.7
2017-10-25T02:32:18.345Z,1008.7
2017-10-25T02:33:21.144Z,1008.8
2017-10-25T02:34:23.581Z,1008.7
2017-10-25T02:35:26.387Z,1008.6
2017-10-25T02:36:28.819Z,1008.7
2017-10-25T02:37:31.608Z,1008.6
2017-10-25T02:38:34.041Z,1008.6
2017-10-25T02:39:36.485Z,1008.5
2017-10-25T02:40:38.913Z,1008.6
2017-10-25T02:41:41.354Z,1008.6
2017-10-25T02:42:43.788Z,1008.6
2017-10-25T02:43:46.229Z,1008.6
2017-10-25T02:44:48.664Z,1008.6
2017-10-25T02:45:51.105Z,1008.7
2017-10-25T02:46:53.531Z,1008.7
2017-10-25T02:47:55.969Z,1008.7
2017-10-25T02:48:58.402Z,1008.7
2017-10-25T02:50:01.203Z,1008.8
2017-10-25T02:51:03.627Z,1008.8
2017-10-25T02:52:06.070Z,1008.8
2017-10-25T02:53:08.848Z,1008.8
2017-10-25T02:54:11.649Z,1008.7
2017-10-25T02:55:14.077Z,1008.8
2017-10-25T02:56:16.518Z,1008.7
2017-10-25T02:57:19.336Z,1008.7
2017-10-25T02:58:21.776Z,1008.7
2017-10-25T02:59:24.214Z,1008.7
2017-10-25T03:00:26.646Z,1008.8
2017-10-25T03:01:29.086Z,1008.7
2017-10-25T03:02:31.510Z,1008.7
2017-10-25T03:03:33.937Z,1008.6
2017-10-25T03:04:36.374Z,1008.6
2017-10-25T03:05:38.806Z,1008.6
2017-10-25T03:06:41.229Z,1008.6
2017-10-25T03:07:43.668Z,1008.6
2017-10-25T03:08:46.101Z,1008.7
2017-10-25T03:09:48.535Z,1008.7
2017-10-25T03:10:51.334Z,1008.6
2017-10-25T03:11:53.774Z,1008.6
2017-10-25T03:12:56.202Z,1008.7
2017-10-25T03:13:58.642Z,1008.6
2017-10-25T03:15:01.073Z,1008.7
2017-10-25T03:16:03.510Z,1008.7
2017-10-25T03:17:05.954Z,1008.7
2017-10-25T03:18:08.382Z,1008.7
2017-10-25T03:19:10.812Z,1008.7
2017-10-25T03:20:13.248Z,1008.7
2017-10-25T03:21:15.675Z,1008.7
2017-10-25T03:22:18.108Z,1008.6
2017-10-25T03:23:20.546Z,1008.6
2017-10-25T03:24:22.966Z,1008.6
2017-10-25T03:25:25.401Z,1008.6
2017-10-25T03:26:27.843Z,1008.6
2017-10-25T03:27:30.273Z,1008.6
2017-10-25T03:28:33.446Z,1008.6
2017-10-25T03:29:36.246Z,1008.5
2017-10-25T03:30:38.677Z,1008.6
2017-10-25T03:31:41.093Z,1008.6
2017-10-25T03:32:43.529Z,1008.6
2017-10-25T03:33:45.963Z,1008.7
2017-10-25T03:34:48.395Z,1008.7
2017-10-25T03:35:50.834Z,1008.7
2017-10-25T03:36:53.272Z,1008.7
2017-10-25T03:37:56.086Z,1008.7
2017-10-25T03:38:58.534Z,1008.7
2017-10-25T03:40:01.327Z,1008.8
2017-10-25T03:41:03.765Z,1008.8
2017-10-25T03:42:06.197Z,1008.8
2017-10-25T03:43:08.628Z,1008.8
2017-10-25T03:44:11.055Z,1008.8
2017-10-25T03:45:13.494Z,1008.8
2017-10-25T03:46:15.923Z,1008.8
2017-10-25T03:47:18.354Z,1008.8
2017-10-25T03:48:20.791Z,1008.8
2017-10-25T03:49:23.230Z,1008.8
2017-10-25T03:50:25.654Z,1008.7
2017-10-25T03:51:28.094Z,1008.8
2017-10-25T03:52:30.530Z,1008.8
2017-10-25T03:53:32.964Z,1008.8
2017-10-25T03:54:35.400Z,1008.7
2017-10-25T03:55:38.188Z,1008.7
2017-10-25T03:56:40.614Z,1008.8
2017-10-25T03:57:43.067Z,1008.8
2017-10-25T03:58:45.491Z,1008.8
2017-10-25T03:59:47.931Z,1008.8
2017-10-25T04:00:50.363Z,1008.7
2017-10-25T04:01:52.796Z,1008.7
2017-10-25T04:02:55.225Z,1008.8
2017-10-25T04:03:57.655Z,1008.8
2017-10-25T04:05:00.105Z,1008.7
2017-10-25T04:06:02.536Z,1008.8
2017-10-25T04:07:05.033Z,1008.7
2017-10-25T04:08:07.466Z,1008.7
2017-10-25T04:09:09.893Z,1008.7
2017-10-25T04:10:12.325Z,1008.8
2017-10-25T04:11:14.761Z,1008.8
2017-10-25T04:12:17.186Z,1008.8
2017-10-25T04:13:19.627Z,1008.7
2017-10-25T04:14:22.052Z,1008.8
2017-10-25T04:15:24.488Z,1008.8
2017-10-25T04:16:26.918Z,1008.8
2017-10-25T04:17:29.356Z,1008.8
2017-10-25T04:18:31.790Z,1008.7
2017-10-25T04:19:34.235Z,1008.8
2017-10-25T04:20:36.670Z,1008.8
2017-10-25T04:21:39.109Z,1008.7
2017-10-25T04:22:41.544Z,1008.7
2017-10-25T04:23:43.976Z,1008.7
2017-10-25T04:24:46.407Z,1008.7
2017-10-25T04:25:48.839Z,1008.7
2017-10-25T04:26:51.272Z,1008.8
2017-10-25T04:27:53.711Z,1008.7
2017-10-25T04:28:56.137Z,1008.7
2017-10-25T04:29:58.565Z,1008.6
2017-10-25T04:31:01.004Z,1008.7
2017-10-25T04:32:03.443Z,1008.7
2017-10-25T04:33:05.880Z,1008.7
2017-10-25T04:34:08.314Z,1008.7
2017-10-25T04:35:10.747Z,1008.7
2017-10-25T04:36:13.188Z,1008.7
2017-10-25T04:37:15.628Z,1008.7
2017-10-25T04:38:18.045Z,1008.6
2017-10-25T04:39:20.825Z,1008.6
2017-10-25T04:40:23.259Z,1008.6
2017-10-25T04:41:25.690Z,1008.6
2017-10-25T04:42:28.130Z,1008.6
2017-10-25T04:43:30.565Z,1008.6
2017-10-25T04:44:33.002Z,1008.6
2017-10-25T04:45:35.435Z,1008.5
2017-10-25T04:46:37.873Z,1008.5
2017-10-25T04:47:40.293Z,1008.6
2017-10-25T04:48:42.738Z,1008.5
2017-10-25T04:49:45.174Z,1008.5
2017-10-25T04:50:47.608Z,1008.5
2017-10-25T04:51:50.044Z,1008.5
2017-10-25T04:52:52.468Z,1008.5
2017-10-25T04:53:54.897Z,1008.4
2017-10-25T04:54:57.341Z,1008.4
2017-10-25T04:55:59.775Z,1008.4
2017-10-25T04:57:02.216Z,1008.4
2017-10-25T04:58:04.656Z,1008.3
2017-10-25T04:59:07.446Z,1008.3
2017-10-25T05:00:09.879Z,1008.3
2017-10-25T05:01:12.672Z,1008.3
2017-10-25T05:02:15.118Z,1008.3
2017-10-25T05:03:17.559Z,1008.3
2017-10-25T05:04:19.990Z,1008.3
2017-10-25T05:05:22.428Z,1008.3
2017-10-25T05:06:25.265Z,1008.2
2017-10-25T05:07:28.828Z,1008.3
2017-10-25T05:08:32.077Z,1008.3
2017-10-25T05:09:35.722Z,1008.3
2017-10-25T05:10:39.557Z,1008.3
2017-10-25T05:11:42.006Z,1008.3
2017-10-25T05:12:44.426Z,1008.2
2017-10-25T05:13:46.906Z,1008.2
2017-10-25T05:14:50.463Z,1008.3
2017-10-25T05:15:52.897Z,1008.3
2017-10-25T05:16:55.336Z,1008.2
2017-10-25T05:17:57.779Z,1008.2
2017-10-25T05:19:00.205Z,1008.2
2017-10-25T05:20:02.643Z,1008.2
2017-10-25T05:21:05.067Z,1008.2
2017-10-25T05:22:07.495Z,1008.2
2017-10-25T05:23:09.933Z,1008.1
2017-10-25T05:24:12.374Z,1008.1
2017-10-25T05:25:14.798Z,1008.2
2017-10-25T05:26:17.242Z,1008.2
2017-10-25T05:27:19.684Z,1008.1
2017-10-25T05:28:22.119Z,1008.1
2017-10-25T05:29:24.568Z,1008.1
2017-10-25T05:30:27.364Z,1008.2
2017-10-25T05:31:29.798Z,1008.1
2017-10-25T05:32:32.236Z,1008.1
2017-10-25T05:33:34.670Z,1008.1
2017-10-25T05:34:37.479Z,1008.1
2017-10-25T05:35:40.281Z,1008.1
2017-10-25T05:36:42.714Z,1008
2017-10-25T05:37:45.159Z,1008.1
2017-10-25T05:38:47.602Z,1008.1
2017-10-25T05:39:50.029Z,1008.1
2017-10-25T05:40:52.464Z,1008
2017-10-25T05:41:54.897Z,1008
2017-10-25T05:42:57.329Z,1008
2017-10-25T05:43:59.763Z,1007.9
2017-10-25T05:45:02.236Z,1007.9
2017-10-25T05:46:04.645Z,1007.9
2017-10-25T05:47:07.432Z,1007.9
2017-10-25T05:48:09.869Z,1008
2017-10-25T05:49:12.305Z,1008
2017-10-25T05:50:14.741Z,1008
2017-10-25T05:51:17.168Z,1008
2017-10-25T05:52:19.611Z,1007.9
2017-10-25T05:53:22.039Z,1007.9
2017-10-25T05:54:24.496Z,1007.9
2017-10-25T05:55:26.940Z,1007.8
2017-10-25T05:56:29.368Z,1007.9
2017-10-25T05:57:31.803Z,1007.8
2017-10-25T05:58:34.247Z,1007.9
2017-10-25T05:59:37.069Z,1007.9
2017-10-25T06:00:39.505Z,1007.9
2017-10-25T06:01:41.974Z,1007.9
2017-10-25T06:02:44.389Z,1007.9
2017-10-25T06:03:46.817Z,1007.9
2017-10-25T06:04:49.606Z,1007.9
2017-10-25T06:05:52.050Z,1007.9
2017-10-25T06:06:54.600Z,1007.9
2017-10-25T06:07:58.056Z,1007.9
2017-10-25T06:09:00.477Z,1007.9
2017-10-25T06:10:03.286Z,1007.9
2017-10-25T06:11:06.091Z,1007.9
2017-10-25T06:12:08.525Z,1007.8
2017-10-25T06:13:10.959Z,1007.9
2017-10-25T06:14:13.393Z,1007.9
2017-10-25T06:15:15.822Z,1007.8
2017-10-25T06:16:18.256Z,1007.8
2017-10-25T06:17:20.693Z,1007.8
2017-10-25T06:18:23.113Z,1007.8
2017-10-25T06:19:25.547Z,1007.8
2017-10-25T06:20:27.983Z,1007.9
2017-10-25T06:21:30.415Z,1007.8
2017-10-25T06:22:32.859Z,1007.8
2017-10-25T06:23:35.289Z,1007.8
2017-10-25T06:24:37.728Z,1007.8
2017-10-25T06:25:40.168Z,1007.8
2017-10-25T06:26:42.598Z,1007.9
2017-10-25T06:27:45.023Z,1007.8
2017-10-25T06:28:47.451Z,1007.9
2017-10-25T06:29:49.883Z,1007.9
2017-10-25T06:30:52.317Z,1007.9
2017-10-25T06:31:54.755Z,1007.9
2017-10-25T06:32:57.191Z,1007.8
2017-10-25T06:33:59.624Z,1007.7
2017-10-25T06:35:02.072Z,1007.9
2017-10-25T06:36:04.511Z,1007.9
2017-10-25T06:37:06.945Z,1008
2017-10-25T06:38:09.377Z,1008
2017-10-25T06:39:11.810Z,1008
2017-10-25T06:40:14.248Z,1008
2017-10-25T06:41:16.685Z,1008.1
2017-10-25T06:42:19.102Z,1008
2017-10-25T06:43:21.537Z,1008
2017-10-25T06:44:24.335Z,1008
2017-10-25T06:45:26.761Z,1008
2017-10-25T06:46:29.198Z,1008
2017-10-25T06:47:31.639Z,1008
2017-10-25T06:48:34.069Z,1008.1
2017-10-25T06:49:36.511Z,1008
2017-10-25T06:50:38.941Z,1008.1
2017-10-25T06:51:41.380Z,1008
2017-10-25T06:52:43.812Z,1008.1
2017-10-25T06:53:46.254Z,1008
2017-10-25T06:54:48.684Z,1008.1
2017-10-25T06:55:51.117Z,1008
2017-10-25T06:56:53.924Z,1008
2017-10-25T06:57:56.352Z,1008
2017-10-25T06:58:58.778Z,1008.1
2017-10-25T07:00:01.212Z,1008
2017-10-25T07:01:03.656Z,1008
2017-10-25T07:02:06.094Z,1008.1
2017-10-25T07:03:08.521Z,1008.1
2017-10-25T07:04:10.955Z,1008.1
2017-10-25T07:05:13.775Z,1008.1
2017-10-25T07:06:16.565Z,1008
2017-10-25T07:07:19.000Z,1008.1
2017-10-25T07:08:21.422Z,1008
2017-10-25T07:09:24.232Z,1008
2017-10-25T07:10:27.046Z,1008
2017-10-25T07:11:29.471Z,1008
2017-10-25T07:12:31.901Z,1007.9
2017-10-25T07:13:34.333Z,1007.9
2017-10-25T07:14:36.762Z,1007.9
2017-10-25T07:15:39.210Z,1007.9
2017-10-25T07:16:41.644Z,1008
2017-10-25T07:17:44.068Z,1007.9
2017-10-25T07:18:46.507Z,1007.9
2017-10-25T07:19:49.295Z,1007.8
2017-10-25T07:20:51.730Z,1007.8
2017-10-25T07:21:54.165Z,1007.8
2017-10-25T07:22:56.589Z,1007.8
2017-10-25T07:23:59.024Z,1007.9
2017-10-25T07:25:01.468Z,1008
2017-10-25T07:26:04.280Z,1007.9
2017-10-25T07:27:07.050Z,1007.9
2017-10-25T07:28:09.487Z,1008
2017-10-25T07:29:11.925Z,1008
2017-10-25T07:30:14.345Z,1008
2017-10-25T07:31:16.785Z,1008
2017-10-25T07:32:19.221Z,1008
2017-10-25T07:33:21.653Z,1008
2017-10-25T07:34:24.102Z,1007.9
2017-10-25T07:35:26.537Z,1008
2017-10-25T07:36:28.959Z,1008
2017-10-25T07:37:31.406Z,1008
2017-10-25T07:38:33.831Z,1008
2017-10-25T07:39:36.646Z,1008
2017-10-25T07:40:39.803Z,1008
2017-10-25T07:41:42.220Z,1007.9
2017-10-25T07:42:44.664Z,1007.9
2017-10-25T07:43:47.095Z,1007.9
2017-10-25T07:44:49.532Z,1008.1
2017-10-25T07:45:52.322Z,1007.9
2017-10-25T07:46:54.753Z,1008
2017-10-25T07:47:57.190Z,1008.1
2017-10-25T07:48:59.632Z,1008
2017-10-25T07:50:02.075Z,1008.1
2017-10-25T07:51:04.499Z,1008.1
2017-10-25T07:52:06.932Z,1008.1
2017-10-25T07:53:09.367Z,1008.2
2017-10-25T07:54:11.799Z,1008.2
2017-10-25T07:55:14.226Z,1008.2
2017-10-25T07:56:16.664Z,1008.2
2017-10-25T07:57:19.103Z,1008.2
2017-10-25T07:58:21.532Z,1008.1
2017-10-25T07:59:23.978Z,1008.2
2017-10-25T08:00:26.414Z,1008.1
2017-10-25T08:01:28.842Z,1008.2
2017-10-25T08:02:31.271Z,1008
2017-10-25T08:03:33.706Z,1008.1
2017-10-25T08:04:36.137Z,1008
2017-10-25T08:05:38.573Z,1008.1
2017-10-25T08:06:41.006Z,1008.1
2017-10-25T08:07:43.438Z,1008.1
2017-10-25T08:08:45.868Z,1008.1
2017-10-25T08:09:48.313Z,1008.2
2017-10-25T08:10:50.747Z,1008.2
2017-10-25T08:11:53.177Z,1008.1
2017-10-25T08:12:55.604Z,1008.1
2017-10-25T08:13:58.042Z,1008.2
2017-10-25T08:15:00.480Z,1008.2
2017-10-25T08:16:03.302Z,1008.1
2017-10-25T08:17:05.737Z,1008.1
2017-10-25T08:18:08.163Z,1008
2017-10-25T08:19:10.599Z,1008
2017-10-25T08:20:13.033Z,1008
2017-10-25T08:21:15.473Z,1008
2017-10-25T08:22:17.908Z,1008
2017-10-25T08:23:20.331Z,1008
2017-10-25T08:24:22.766Z,1008
2017-10-25T08:25:25.552Z,1008
2017-10-25T08:26:27.987Z,1007.8
2017-10-25T08:27:30.442Z,1007.9
2017-10-25T08:28:32.861Z,1007.8
2017-10-25T08:29:35.296Z,1007.8
2017-10-25T08:30:37.726Z,1007.7
2017-10-25T08:31:40.151Z,1007.8
2017-10-25T08:32:42.581Z,1007.7
2017-10-25T08:33:45.015Z,1007.8
2017-10-25T08:34:47.443Z,1007.8
2017-10-25T08:35:49.882Z,1007.7
2017-10-25T08:36:52.319Z,1007.8
2017-10-25T08:37:54.749Z,1007.8
2017-10-25T08:38:57.199Z,1007.8
2017-10-25T08:39:59.628Z,1007.8
2017-10-25T08:41:02.061Z,1007.8
2017-10-25T08:42:04.494Z,1007.7
2017-10-25T08:43:07.215Z,1007.7
2017-10-25T08:44:09.654Z,1007.8
2017-10-25T08:45:12.092Z,1007.8
2017-10-25T08:46:14.528Z,1007.8
2017-10-25T08:47:16.955Z,1007.7
2017-10-25T08:48:19.389Z,1007.6
2017-10-25T08:49:21.817Z,1007.6
2017-10-25T08:50:24.651Z,1007.6
2017-10-25T08:51:27.081Z,1007.6
2017-10-25T08:52:29.521Z,1007.5
2017-10-25T08:53:31.960Z,1007.4
2017-10-25T08:54:34.392Z,1007.3
2017-10-25T08:55:37.191Z,1007.3
2017-10-25T08:56:39.627Z,1007.3
2017-10-25T08:57:42.070Z,1007.5
2017-10-25T08:58:44.513Z,1007.5
2017-10-25T08:59:46.945Z,1007.3
2017-10-25T09:00:49.746Z,1007.5
2017-10-25T09:01:52.177Z,1007.4
2017-10-25T09:02:54.624Z,1007.4
2017-10-25T09:03:57.052Z,1007.3
2017-10-25T09:04:59.492Z,1007.5
2017-10-25T09:06:01.919Z,1007.4
2017-10-25T09:07:04.401Z,1007.5
2017-10-25T09:08:06.830Z,1007.6
2017-10-25T09:09:09.260Z,1007.5
2017-10-25T09:10:11.688Z,1007.6
2017-10-25T09:11:14.132Z,1007.5
2017-10-25T09:12:16.564Z,1007.6
2017-10-25T09:13:19.752Z,1007.6
2017-10-25T09:14:22.173Z,1007.6
2017-10-25T09:15:24.606Z,1007.7
2017-10-25T09:16:27.044Z,1007.7
2017-10-25T09:17:29.481Z,1007.7
2017-10-25T09:18:31.910Z,1007.7
2017-10-25T09:19:34.349Z,1007.6
2017-10-25T09:20:36.769Z,1007.5
2017-10-25T09:21:39.219Z,1007.6
2017-10-25T09:22:41.681Z,1007.7
2017-10-25T09:23:44.114Z,1007.6
2017-10-25T09:24:46.541Z,1007.7
2017-10-25T09:25:48.980Z,1007.6
2017-10-25T09:26:51.417Z,1007.6
2017-10-25T09:27:53.851Z,1007.8
2017-10-25T09:28:56.632Z,1007.6
2017-10-25T09:29:59.069Z,1007.7
2017-10-25T09:31:01.500Z,1007.6
2017-10-25T09:32:03.943Z,1007.8
2017-10-25T09:33:06.369Z,1007.8
2017-10-25T09:34:08.809Z,1007.7
2017-10-25T09:35:11.604Z,1007.7
2017-10-25T09:36:14.404Z,1007.7
2017-10-25T09:37:16.832Z,1007.7
2017-10-25T09:38:19.267Z,1007.7
2017-10-25T09:39:21.697Z,1007.7
2017-10-25T09:40:24.135Z,1007.7
2017-10-25T09:41:26.568Z,1007.8
2017-10-25T09:42:29.006Z,1007.8
2017-10-25T09:43:31.439Z,1007.5
2017-10-25T09:44:33.876Z,1007.7
2017-10-25T09:45:36.300Z,1007.6
2017-10-25T09:46:38.743Z,1007.7
2017-10-25T09:47:41.166Z,1007.6
2017-10-25T09:48:43.611Z,1007.6
2017-10-25T09:49:46.041Z,1007.5
2017-10-25T09:50:48.472Z,1007.5
2017-10-25T09:51:50.907Z,1007.6
2017-10-25T09:52:53.348Z,1007.5
2017-10-25T09:53:56.162Z,1007.5
2017-10-25T09:54:58.591Z,1007.4
2017-10-25T09:56:01.022Z,1007.5
2017-10-25T09:57:03.831Z,1007.5
2017-10-25T09:58:06.264Z,1007.5
2017-10-25T09:59:08.701Z,1007.5
2017-10-25T10:00:11.136Z,1007.4
2017-10-25T10:01:13.579Z,1007.6
2017-10-25T10:02:16.020Z,1007.6
2017-10-25T10:03:18.450Z,1007.5
2017-10-25T10:04:20.877Z,1007.5
2017-10-25T10:05:23.306Z,1007.5
2017-10-25T10:06:25.747Z,1007.5
2017-10-25T10:07:28.181Z,1007.6
2017-10-25T10:08:30.619Z,1007.5
2017-10-25T10:09:33.040Z,1007.5
2017-10-25T10:10:35.469Z,1007.6
2017-10-25T10:11:37.915Z,1007.5
2017-10-25T10:12:40.345Z,1007.5
2017-10-25T10:13:42.767Z,1007.5
2017-10-25T10:14:45.202Z,1007.5
2017-10-25T10:15:47.644Z,1007.6
2017-10-25T10:16:50.438Z,1007.6
2017-10-25T10:17:52.880Z,1007.4
2017-10-25T10:18:55.300Z,1007.4
2017-10-25T10:19:57.739Z,1007.4
2017-10-25T10:21:00.556Z,1007.3
2017-10-25T10:22:02.988Z,1007.3
2017-10-25T10:23:05.431Z,1007.4
2017-10-25T10:24:07.883Z,1007.5
2017-10-25T10:25:10.296Z,1007.4
2017-10-25T10:26:13.094Z,1007.3
2017-10-25T10:27:15.532Z,1007.4
2017-10-25T10:28:17.957Z,1007.4
2017-10-25T10:29:20.404Z,1007.5
2017-10-25T10:30:22.846Z,1007.4
2017-10-25T10:31:25.289Z,1007.4
2017-10-25T10:32:28.082Z,1007.4
2017-10-25T10:33:30.523Z,1007.3
2017-10-25T10:34:32.959Z,1007.4
2017-10-25T10:35:35.414Z,1007.4
2017-10-25T10:36:37.860Z,1007.4
2017-10-25T10:37:40.292Z,1007.4
2017-10-25T10:38:42.733Z,1007.3
2017-10-25T10:39:45.175Z,1007.4
2017-10-25T10:40:47.969Z,1007.2
2017-10-25T10:41:50.407Z,1007.4
2017-10-25T10:42:53.193Z,1007.4
2017-10-25T10:43:55.636Z,1007.4
2017-10-25T10:44:58.087Z,1007.4
2017-10-25T10:46:00.527Z,1007.4
2017-10-25T10:47:02.971Z,1007.5
2017-10-25T10:48:05.410Z,1007.4
2017-10-25T10:49:07.845Z,1007.5
2017-10-25T10:50:10.290Z,1007.4
2017-10-25T10:51:12.728Z,1007.4
2017-10-25T10:52:15.160Z,1007.3
2017-10-25T10:53:17.607Z,1007.3
2017-10-25T10:54:20.045Z,1007.2
2017-10-25T10:55:22.488Z,1007.2
2017-10-25T10:56:24.928Z,1007.3
2017-10-25T10:57:27.375Z,1007.3
2017-10-25T10:58:29.819Z,1007.3
2017-10-25T10:59:32.253Z,1007.4
2017-10-25T11:00:34.711Z,1007.4
2017-10-25T11:01:37.135Z,1007.4
2017-10-25T11:02:39.579Z,1007.4
2017-10-25T11:03:42.016Z,1007.5
2017-10-25T11:04:44.456Z,1007.3
2017-10-25T11:05:46.898Z,1007.4
2017-10-25T11:06:49.344Z,1007.3
2017-10-25T11:07:51.784Z,1007.3
2017-10-25T11:08:54.224Z,1007.3
2017-10-25T11:09:56.668Z,1007.3
2017-10-25T11:10:59.100Z,1007.4
2017-10-25T11:12:01.537Z,1007.2
2017-10-25T11:13:03.987Z,1007.4
2017-10-25T11:14:06.421Z,1007.7
2017-10-25T11:15:08.862Z,1007.3
2017-10-25T11:16:12.006Z,1007.5
2017-10-25T11:17:14.439Z,1007.3
2017-10-25T11:18:16.873Z,1007.3
2017-10-25T11:19:19.675Z,1007.3
2017-10-25T11:20:22.104Z,1007.3
2017-10-25T11:21:24.550Z,1007.1
2017-10-25T11:22:26.994Z,1007.3
2017-10-25T11:23:29.432Z,1007.2
2017-10-25T11:24:31.871Z,1007.3
2017-10-25T11:25:34.676Z,1007.2
2017-10-25T11:26:37.458Z,1007.2
2017-10-25T11:27:39.900Z,1007.3
2017-10-25T11:28:42.680Z,1007.2
2017-10-25T11:29:45.116Z,1007.4
2017-10-25T11:30:47.551Z,1007.2
2017-10-25T11:31:49.987Z,1007.3
2017-10-25T11:32:52.425Z,1007.3
2017-10-25T11:33:54.860Z,1007.3
2017-10-25T11:34:57.303Z,1007.3
2017-10-25T11:35:59.753Z,1007.3
2017-10-25T11:37:02.191Z,1007.3
2017-10-25T11:38:04.633Z,1007.3
2017-10-25T11:39:07.418Z,1007.4
2017-10-25T11:40:09.856Z,1007.3
2017-10-25T11:41:12.291Z,1007.4
2017-10-25T11:42:14.724Z,1007.3
2017-10-25T11:43:17.155Z,1007.3
2017-10-25T11:44:19.609Z,1007.2
2017-10-25T11:45:22.029Z,1007.3
2017-10-25T11:46:24.466Z,1007.3
2017-10-25T11:47:26.901Z,1007.3
2017-10-25T11:48:29.336Z,1007.3
2017-10-25T11:49:31.778Z,1007.3
2017-10-25T11:50:34.219Z,1007.3
2017-10-25T11:51:37.025Z,1007.3
2017-10-25T11:52:39.442Z,1007.5
2017-10-25T11:53:41.880Z,1007.3
2017-10-25T11:54:44.315Z,1007.3
2017-10-25T11:55:46.755Z,1007.2
2017-10-25T11:56:49.541Z,1007.3
2017-10-25T11:57:51.969Z,1007.2
2017-10-25T11:58:54.406Z,1007.2
2017-10-25T11:59:56.850Z,1007.2
2017-10-25T12:00:59.638Z,1007.1
2017-10-25T12:02:02.079Z,1007.1
2017-10-25T12:03:04.510Z,1007.1
2017-10-25T12:04:06.942Z,1007.2
2017-10-25T12:05:09.383Z,1007.1
2017-10-25T12:06:12.537Z,1007.2
2017-10-25T12:07:14.974Z,1007.2
2017-10-25T12:08:17.416Z,1007.2
2017-10-25T12:09:20.229Z,1007.2
2017-10-25T12:10:22.647Z,1007.2
2017-10-25T12:11:25.085Z,1007.1
2017-10-25T12:12:27.528Z,1007
2017-10-25T12:13:29.957Z,1007.2
2017-10-25T12:14:32.389Z,1007.2
2017-10-25T12:15:34.819Z,1007.2
2017-10-25T12:16:37.257Z,1007.2
2017-10-25T12:17:39.702Z,1007.2
2017-10-25T12:18:42.141Z,1007.1
2017-10-25T12:19:44.571Z,1007.2
2017-10-25T12:20:47.006Z,1007.2
2017-10-25T12:21:49.809Z,1007.2
2017-10-25T12:22:52.251Z,1007.3
2017-10-25T12:23:54.741Z,1007.1
2017-10-25T12:24:57.327Z,1007.3
2017-10-25T12:25:59.756Z,1007.2
2017-10-25T12:27:02.193Z,1007.2
2017-10-25T12:28:04.621Z,1007.3
2017-10-25T12:29:07.062Z,1007.3
2017-10-25T12:30:09.496Z,1007.3
2017-10-25T12:31:11.933Z,1007.3
2017-10-25T12:32:14.375Z,1007.4
2017-10-25T12:33:16.824Z,1007.3
2017-10-25T12:34:19.610Z,1007.3
2017-10-25T12:35:22.401Z,1007.2
2017-10-25T12:36:24.836Z,1007.5
2017-10-25T12:37:27.267Z,1007.3
2017-10-25T12:38:29.704Z,1007.4
2017-10-25T12:39:32.154Z,1007.6
2017-10-25T12:40:34.563Z,1007.4
2017-10-25T12:41:37.822Z,1007.5
2017-10-25T12:42:40.289Z,1007.4
2017-10-25T12:43:42.972Z,1007.3
2017-10-25T12:44:45.416Z,1007.5
2017-10-25T12:45:47.849Z,1007.5
2017-10-25T12:46:50.280Z,1007.5
2017-10-25T12:47:52.721Z,1007.6
2017-10-25T12:48:55.159Z,1007.6
2017-10-25T12:49:57.588Z,1007.7
2017-10-25T12:51:00.394Z,1007.8
2017-10-25T12:52:02.821Z,1007.8
2017-10-25T12:53:05.263Z,1007.9
2017-10-25T12:54:07.694Z,1007.9
2017-10-25T12:55:10.132Z,1008
2017-10-25T12:56:12.562Z,1007.9
2017-10-25T12:57:15.001Z,1008
2017-10-25T12:58:17.809Z,1008
2017-10-25T12:59:20.245Z,1008.1
2017-10-25T13:00:22.685Z,1008.1
2017-10-25T13:01:25.125Z,1008
2017-10-25T13:02:27.560Z,1008.1
2017-10-25T13:03:29.994Z,1008
2017-10-25T13:04:32.430Z,1008.1
2017-10-25T13:05:34.854Z,1008.1
2017-10-25T13:06:37.301Z,1008.1